Time;durP1;ratioP1;P1;durP2;ratioP2;P2;SDS_P1;SDS_P2;PMS_P1;PMS_P2;Temp;Humidity;BMP_temperature;BMP_pressure;BME280_temperature;BME280_humidity;BME280_pressure;Samples;Min_cycle;Max_cycle;Signal;HPM_P1;HPM_P2
2024/01/02 00:00:34;;;;;;;18.35;3.90;;;;;;;5.74;100.00;99949.53;5078722;28;20060;-72
2024/01/02 00:02:59;;;;;;;10.18;2.90;;;;;;;5.72;100.00;99941.16;5084254;28;20693;-72
2024/01/02 00:05:25;;;;;;;22.33;3.47;;;;;;;5.69;100.00;99939.69;5047533;28;20394;-73
2024/01/02 00:07:50;;;;;;;12.63;2.28;;;;;;;5.73;100.00;99925.56;5040950;28;20522;-71
2024/01/02 00:10:16;;;;;;;22.90;3.17;;;;;;;5.80;100.00;99929.19;5074128;28;20040;-72
2024/01/02 00:12:41;;;;;;;17.13;2.20;;;;;;;5.80;100.00;99915.50;5059735;28;20016;-72
2024/01/02 00:15:07;;;;;;;15.68;3.10;;;;;;;5.80;100.00;99918.06;5044019;28;20032;-72
2024/01/02 00:17:32;;;;;;;13.13;2.10;;;;;;;5.82;100.00;99911.84;5052909;28;20036;-72
2024/01/02 00:19:58;;;;;;;12.50;2.58;;;;;;;5.74;100.00;99904.03;5050472;28;20032;-73
2024/01/02 00:22:24;;;;;;;14.45;2.42;;;;;;;5.79;100.00;99903.59;5071310;28;20050;-73
2024/01/02 00:24:49;;;;;;;18.20;3.03;;;;;;;5.80;100.00;99897.47;5071555;28;20474;-73
2024/01/02 00:27:14;;;;;;;15.57;2.75;;;;;;;5.77;100.00;99893.44;5060541;28;20031;-72
2024/01/02 00:29:40;;;;;;;13.18;2.40;;;;;;;5.70;100.00;99882.13;5044419;28;22480;-73
2024/01/02 00:32:05;;;;;;;23.08;3.45;;;;;;;5.73;100.00;99878.47;5055645;28;20021;-73
2024/01/02 00:34:31;;;;;;;15.88;2.30;;;;;;;5.82;100.00;99877.56;5048022;28;20418;-73
2024/01/02 00:36:57;;;;;;;15.27;2.10;;;;;;;5.77;100.00;99867.72;5062580;28;20040;-73
2024/01/02 00:39:22;;;;;;;13.02;2.85;;;;;;;5.75;100.00;99873.97;5056873;28;20032;-73
2024/01/02 00:41:49;;;;;;;12.73;2.72;;;;;;;5.79;100.00;99863.25;5064529;28;20035;-73
2024/01/02 00:44:15;;;;;;;9.95;2.03;;;;;;;5.85;100.00;99848.97;5063196;28;20039;-73
2024/01/02 00:46:41;;;;;;;13.10;3.10;;;;;;;5.80;100.00;99846.03;5077616;28;20036;-73
2024/01/02 00:49:06;;;;;;;18.23;3.38;;;;;;;5.80;100.00;99825.44;5057962;28;20032;-72
2024/01/02 00:51:31;;;;;;;10.85;2.00;;;;;;;5.76;100.00;99826.72;5064903;28;20032;-73
2024/01/02 00:53:59;;;;;;;7.78;2.08;;;;;;;5.76;100.00;99821.56;5076129;28;20032;-73
2024/01/02 00:56:24;;;;;;;13.98;2.70;;;;;;;5.83;100.00;99805.38;5076493;28;20086;-73
2024/01/02 00:58:50;;;;;;;13.23;2.38;;;;;;;5.85;100.00;99793.16;5056264;28;20037;-73
2024/01/02 01:01:18;;;;;;;11.35;1.92;;;;;;;5.79;100.00;99785.25;5057501;28;20024;-73
2024/01/02 01:03:43;;;;;;;12.27;2.13;;;;;;;5.76;100.00;99772.69;5059955;28;20721;-72
2024/01/02 01:06:09;;;;;;;11.57;1.98;;;;;;;5.79;100.00;99767.25;5065668;28;20043;-73
2024/01/02 01:08:34;;;;;;;14.00;2.17;;;;;;;5.78;100.00;99755.31;5046647;28;20562;-72
2024/01/02 01:11:00;;;;;;;15.20;3.30;;;;;;;5.83;100.00;99750.56;5059301;28;20043;-73
2024/01/02 01:13:26;;;;;;;13.52;2.22;;;;;;;5.74;100.00;99739.38;5061109;28;20036;-73
2024/01/02 01:15:51;;;;;;;10.18;1.83;;;;;;;5.77;100.00;99733.94;5057750;28;20040;-73
2024/01/02 01:18:16;;;;;;;7.93;1.77;;;;;;;5.76;100.00;99723.81;5077199;28;20561;-73
2024/01/02 01:20:42;;;;;;;11.68;2.60;;;;;;;5.85;100.00;99715.19;5060488;28;20479;-72
2024/01/02 01:23:07;;;;;;;9.10;1.80;;;;;;;5.76;100.00;99700.66;5078031;28;20023;-73
2024/01/02 01:25:33;;;;;;;8.15;2.10;;;;;;;5.77;100.00;99684.28;5048761;28;20674;-73
2024/01/02 01:27:59;;;;;;;6.53;1.85;;;;;;;5.78;100.00;99678.97;5064805;28;20089;-73
2024/01/02 01:30:24;;;;;;;8.40;2.08;;;;;;;5.88;100.00;99678.88;5065869;28;20027;-73
2024/01/02 01:32:49;;;;;;;13.50;2.15;;;;;;;5.81;100.00;99672.72;5054080;28;20024;-73
2024/01/02 01:35:15;;;;;;;5.10;1.42;;;;;;;5.83;100.00;99670.78;5064362;28;20056;-73
2024/01/02 01:37:41;;;;;;;10.38;1.35;;;;;;;5.82;100.00;99661.44;5051537;28;20024;-73
2024/01/02 01:40:08;;;;;;;8.85;2.08;;;;;;;5.85;100.00;99645.72;5077969;28;20036;-73
2024/01/02 01:42:33;;;;;;;6.32;1.33;;;;;;;5.84;100.00;99639.78;5057203;28;20045;-73
2024/01/02 01:44:59;;;;;;;6.47;2.20;;;;;;;5.81;100.00;99636.69;5053045;28;20046;-72
2024/01/02 01:47:25;;;;;;;8.90;2.08;;;;;;;5.77;100.00;99625.91;5066589;28;20100;-73
2024/01/02 01:49:51;;;;;;;5.82;1.63;;;;;;;5.80;100.00;99609.34;5069408;28;20051;-73
2024/01/02 01:52:17;;;;;;;9.55;1.90;;;;;;;5.81;100.00;99600.69;5054858;28;20020;-73
2024/01/02 01:54:43;;;;;;;8.65;2.38;;;;;;;5.82;100.00;99584.25;5060895;28;20039;-74
2024/01/02 01:57:10;;;;;;;8.23;1.38;;;;;;;5.83;100.00;99575.59;5050287;28;20041;-72
2024/01/02 01:59:37;;;;;;;4.18;1.20;;;;;;;5.82;100.00;99568.84;5052013;28;20040;-73
2024/01/02 02:02:04;;;;;;;5.15;1.25;;;;;;;5.86;100.00;99559.88;5052601;28;20035;-73
2024/01/02 02:04:32;;;;;;;7.85;1.30;;;;;;;5.83;100.00;99542.94;5052717;28;20024;-72
2024/01/02 02:06:57;;;;;;;6.70;1.52;;;;;;;5.79;100.00;99541.66;5060391;28;20030;-72
2024/01/02 02:09:23;;;;;;;5.60;1.20;;;;;;;5.85;100.00;99535.88;5050390;28;20658;-72
2024/01/02 02:11:49;;;;;;;5.03;1.13;;;;;;;5.88;100.00;99526.25;5067718;28;20572;-72
2024/01/02 02:14:15;;;;;;;6.28;1.30;;;;;;;5.86;100.00;99500.69;5050516;28;20043;-73
2024/01/02 02:16:42;;;;;;;3.72;1.13;;;;;;;5.89;100.00;99476.41;5058196;28;20486;-73
2024/01/02 02:19:08;;;;;;;4.20;0.98;;;;;;;5.95;100.00;99483.50;5082730;28;20077;-72
2024/01/02 02:21:35;;;;;;;2.55;0.60;;;;;;;5.93;100.00;99470.78;5068167;28;20071;-73
2024/01/02 02:24:01;;;;;;;4.68;0.75;;;;;;;5.93;100.00;99460.47;5063171;28;20032;-72
2024/01/02 02:26:26;;;;;;;3.03;0.55;;;;;;;5.97;100.00;99459.25;5066358;28;20391;-73
2024/01/02 02:28:51;;;;;;;3.70;0.60;;;;;;;6.07;100.00;99453.16;5080177;28;20036;-73
2024/01/02 02:31:18;;;;;;;3.75;0.45;;;;;;;6.10;100.00;99434.81;5047195;28;20042;-73
2024/01/02 02:33:44;;;;;;;0.65;0.30;;;;;;;6.14;100.00;99425.78;5069889;28;20047;-74
2024/01/02 02:36:09;;;;;;;0.52;0.20;;;;;;;6.11;100.00;99426.94;5052821;28;20028;-74
2024/01/02 02:38:34;;;;;;;2.13;0.60;;;;;;;6.08;100.00;99406.66;5056265;28;20036;-73
2024/01/02 02:41:00;;;;;;;0.73;0.50;;;;;;;6.12;100.00;99407.13;5065869;28;20038;-73
2024/01/02 02:43:25;;;;;;;2.00;0.13;;;;;;;6.08;100.00;99405.84;5052062;28;20033;-72
2024/01/02 02:45:51;;;;;;;0.73;0.43;;;;;;;6.11;100.00;99369.50;5055618;28;20031;-74
2024/01/02 02:48:17;;;;;;;0.50;0.20;;;;;;;6.09;100.00;99379.16;5051656;28;20036;-75
2024/01/02 02:50:42;;;;;;;1.23;0.38;;;;;;;6.09;100.00;99374.81;5079692;28;20028;-73
2024/01/02 02:53:08;;;;;;;2.25;0.40;;;;;;;6.09;100.00;99368.88;5050460;28;20028;-74
2024/01/02 02:55:33;;;;;;;0.57;0.20;;;;;;;6.05;100.00;99368.38;5083746;28;20059;-72
2024/01/02 02:57:58;;;;;;;1.83;0.30;;;;;;;6.06;100.00;99353.75;5048763;28;20033;-73
2024/01/02 03:00:24;;;;;;;0.50;0.20;;;;;;;6.03;100.00;99352.31;5084598;28;20199;-73
2024/01/02 03:02:50;;;;;;;1.30;0.20;;;;;;;6.00;100.00;99344.91;5067483;28;20024;-73
2024/01/02 03:05:16;;;;;;;3.65;0.38;;;;;;;6.00;100.00;99322.53;5082451;28;20039;-73
2024/01/02 03:07:42;;;;;;;0.47;0.20;;;;;;;5.93;100.00;99324.13;5062928;28;20033;-73
2024/01/02 03:10:10;;;;;;;3.75;0.30;;;;;;;5.91;100.00;99320.91;5085274;28;20051;-74
2024/01/02 03:12:35;;;;;;;3.33;0.30;;;;;;;5.92;100.00;99303.72;5050244;28;20406;-74
2024/01/02 03:15:01;;;;;;;1.67;0.30;;;;;;;5.87;100.00;99299.03;5068643;28;20036;-73
2024/01/02 03:17:26;;;;;;;4.07;0.20;;;;;;;5.91;100.00;99296.94;5077974;28;20662;-74
2024/01/02 03:19:52;;;;;;;0.95;0.20;;;;;;;5.95;100.00;99290.50;5085965;28;20044;-74
2024/01/02 03:22:17;;;;;;;0.88;0.10;;;;;;;5.96;100.00;99287.81;5071404;28;20139;-73
2024/01/02 03:24:42;;;;;;;1.38;0.30;;;;;;;5.91;100.00;99264.28;5082305;28;20023;-74
2024/01/02 03:27:08;;;;;;;2.42;0.30;;;;;;;5.83;100.00;99259.16;5086039;28;20035;-73
2024/01/02 03:29:33;;;;;;;0.85;0.30;;;;;;;5.92;100.00;99258.19;5083157;28;20077;-72
2024/01/02 03:31:59;;;;;;;0.15;0.10;;;;;;;5.88;100.00;99241.50;5065191;28;20040;-73
2024/01/02 03:34:24;;;;;;;0.20;0.20;;;;;;;5.93;100.00;99236.63;5084623;28;20765;-72
2024/01/02 03:36:50;;;;;;;0.40;0.20;;;;;;;5.90;100.00;99225.91;5051135;28;20035;-73
2024/01/02 03:39:15;;;;;;;0.25;0.20;;;;;;;5.92;100.00;99229.09;5077158;28;20041;-74
2024/01/02 03:41:41;;;;;;;0.80;0.28;;;;;;;5.89;100.00;99211.41;5064336;28;20471;-74
2024/01/02 03:44:06;;;;;;;3.28;0.40;;;;;;;5.91;100.00;99201.75;5052522;28;20056;-72
2024/01/02 03:46:31;;;;;;;0.93;0.25;;;;;;;5.86;100.00;99184.25;5081913;28;20039;-74
2024/01/02 03:48:57;;;;;;;0.38;0.20;;;;;;;5.91;100.00;99176.03;5079594;28;20046;-75
2024/01/02 03:51:22;;;;;;;0.40;0.30;;;;;;;5.89;100.00;99168.47;5051216;28;20032;-73
2024/01/02 03:53:48;;;;;;;5.00;0.40;;;;;;;5.90;100.00;99177.00;5081124;28;20036;-73
2024/01/02 03:56:16;;;;;;;0.88;0.30;;;;;;;5.92;100.00;99157.84;5066184;28;20039;-73
2024/01/02 03:58:42;;;;;;;2.05;0.77;;;;;;;5.90;100.00;99143.56;5066774;28;20027;-74
2024/01/02 04:01:07;;;;;;;0.95;0.20;;;;;;;5.90;100.00;99131.50;5053452;28;20031;-74
2024/01/02 04:03:33;;;;;;;0.35;0.10;;;;;;;5.92;100.00;99119.25;5063135;28;20037;-74
2024/01/02 04:05:58;;;;;;;0.68;0.28;;;;;;;5.94;100.00;99121.69;5067483;28;20082;-74
2024/01/02 04:08:23;;;;;;;0.90;0.30;;;;;;;6.00;100.00;99115.88;5065232;28;20067;-73
2024/01/02 04:10:49;;;;;;;1.55;0.35;;;;;;;5.98;100.00;99110.09;5066131;28;20036;-74
2024/01/02 04:13:14;;;;;;;1.20;0.63;;;;;;;5.97;100.00;99105.91;5056739;28;20056;-72
2024/01/02 04:15:40;;;;;;;0.30;0.20;;;;;;;6.03;100.00;99102.69;5068525;28;20028;-74
2024/01/02 04:18:06;;;;;;;0.63;0.35;;;;;;;6.08;100.00;99094.47;5083605;28;20122;-73
2024/01/02 04:20:31;;;;;;;0.65;0.28;;;;;;;6.11;100.00;99086.41;5081023;28;20083;-73
2024/01/02 04:22:57;;;;;;;1.65;0.30;;;;;;;6.16;100.00;99097.81;5081657;28;20024;-73
2024/01/02 04:25:25;;;;;;;3.40;0.20;;;;;;;6.12;100.00;99096.53;5047716;28;20027;-73
2024/01/02 04:27:54;;;;;;;0.98;0.30;;;;;;;6.13;100.00;99094.75;5061983;28;20044;-73
2024/01/02 04:30:19;;;;;;;1.60;0.30;;;;;;;6.15;100.00;99090.25;5087259;28;20418;-73
2024/01/02 04:32:45;;;;;;;0.57;0.40;;;;;;;6.19;100.00;99081.22;5051250;28;20545;-74
2024/01/02 04:35:11;;;;;;;0.80;0.35;;;;;;;6.21;100.00;99085.22;5083954;28;20032;-73
2024/01/02 04:37:36;;;;;;;0.20;0.20;;;;;;;6.29;100.00;99079.25;5083905;28;20036;-74
2024/01/02 04:40:05;;;;;;;1.80;0.30;;;;;;;6.28;100.00;99074.25;5061810;28;20123;-72
2024/01/02 04:42:35;;;;;;;1.38;0.30;;;;;;;6.28;100.00;99072.47;5063777;28;20805;-73
2024/01/02 04:45:02;;;;;;;0.75;0.35;;;;;;;6.23;100.00;99067.84;5067795;28;20085;-72
2024/01/02 04:47:28;;;;;;;0.30;0.20;;;;;;;6.23;100.00;99060.13;5062450;28;20032;-74
2024/01/02 04:49:53;;;;;;;1.58;0.40;;;;;;;6.41;100.00;99053.91;5050070;28;21349;-73
2024/01/02 04:52:19;;;;;;;0.55;0.40;;;;;;;6.37;100.00;99052.66;5064624;28;20040;-73
2024/01/02 04:54:45;;;;;;;0.47;0.28;;;;;;;6.42;100.00;99053.72;5077283;28;20086;-74
2024/01/02 04:57:11;;;;;;;0.38;0.22;;;;;;;6.41;100.00;99049.53;5066045;28;20464;-74
2024/01/02 04:59:36;;;;;;;1.65;0.32;;;;;;;6.46;100.00;99049.03;5077192;28;20111;-73
2024/01/02 05:02:02;;;;;;;0.40;0.32;;;;;;;6.36;100.00;99046.69;5062149;28;20032;-73
2024/01/02 05:04:29;;;;;;;0.50;0.13;;;;;;;6.45;100.00;99037.13;5061945;28;20123;-73
2024/01/02 05:06:55;;;;;;;2.55;0.40;;;;;;;6.59;100.00;99046.69;5085728;28;20023;-73
2024/01/02 05:09:20;;;;;;;3.25;0.30;;;;;;;6.59;100.00;99044.13;5082072;28;20040;-73
2024/01/02 05:11:48;;;;;;;0.50;0.20;;;;;;;6.72;100.00;99046.09;5070291;28;20039;-73
2024/01/02 05:14:14;;;;;;;0.68;0.20;;;;;;;6.80;100.00;99056.34;5077636;28;20028;-73
2024/01/02 05:16:40;;;;;;;0.90;0.20;;;;;;;6.85;100.00;99037.78;5078539;28;20533;-74
2024/01/02 05:19:05;;;;;;;0.57;0.40;;;;;;;7.05;100.00;99043.25;5064843;28;20036;-73
2024/01/02 05:21:31;;;;;;;0.95;0.40;;;;;;;7.17;100.00;99043.59;5059060;28;20047;-73
2024/01/02 05:23:56;;;;;;;1.23;0.30;;;;;;;7.31;100.00;99035.09;5062130;28;20479;-73
2024/01/02 05:26:22;;;;;;;0.25;0.10;;;;;;;7.57;100.00;99047.53;5062295;28;20414;-74
2024/01/02 05:28:47;;;;;;;0.20;0.10;;;;;;;7.77;100.00;99046.97;5064444;28;20027;-73
2024/01/02 05:31:13;;;;;;;0.30;0.30;;;;;;;7.88;100.00;99027.66;5059120;28;20039;-73
2024/01/02 05:33:38;;;;;;;0.13;0.10;;;;;;;7.88;100.00;99036.19;5049669;28;20036;-73
2024/01/02 05:36:04;;;;;;;0.20;0.13;;;;;;;8.03;100.00;99025.03;5049938;28;20049;-73
2024/01/02 05:38:30;;;;;;;1.15;0.20;;;;;;;8.09;100.00;99029.47;5076573;28;20115;-73
2024/01/02 05:40:55;;;;;;;0.10;0.10;;;;;;;8.09;100.00;99032.06;5050566;28;20516;-74
2024/01/02 05:43:21;;;;;;;0.10;0.10;;;;;;;8.12;100.00;99016.22;5078230;28;20039;-74
2024/01/02 05:45:46;;;;;;;0.32;0.10;;;;;;;8.17;100.00;99016.44;5064324;28;20022;-73
2024/01/02 05:48:11;;;;;;;0.38;0.10;;;;;;;8.18;100.00;99018.84;5060967;28;20036;-73
2024/01/02 05:50:37;;;;;;;0.20;0.15;;;;;;;8.26;100.00;99028.25;5053421;28;20617;-73
2024/01/02 05:53:03;;;;;;;1.67;0.22;;;;;;;8.18;100.00;99031.75;5083444;28;20060;-73
2024/01/02 05:55:28;;;;;;;0.10;0.10;;;;;;;8.28;100.00;99021.13;5067191;28;20158;-73
2024/01/02 05:57:54;;;;;;;0.85;0.25;;;;;;;8.30;100.00;99016.56;5066638;28;20039;-73
2024/01/02 06:00:20;;;;;;;0.30;0.20;;;;;;;8.30;100.00;99015.78;5052114;28;20048;-73
2024/01/02 06:02:46;;;;;;;0.32;0.10;;;;;;;8.33;100.00;99012.84;5086398;28;20109;-73
2024/01/02 06:05:11;;;;;;;0.25;0.20;;;;;;;8.34;100.00;99012.66;5054748;28;20707;-73
2024/01/02 06:07:37;;;;;;;0.10;0.10;;;;;;;8.55;100.00;99000.72;5057402;28;20024;-73
2024/01/02 06:10:03;;;;;;;0.15;0.10;;;;;;;8.43;100.00;99007.38;5050657;28;20074;-72
2024/01/02 06:12:28;;;;;;;0.17;0.17;;;;;;;8.53;100.00;99002.69;5069716;28;20130;-73
2024/01/02 06:14:53;;;;;;;0.65;0.20;;;;;;;8.53;100.00;98995.75;5085547;28;20462;-73
2024/01/02 06:17:19;;;;;;;0.30;0.20;;;;;;;8.59;100.00;99009.72;5083411;28;20036;-73
2024/01/02 06:19:44;;;;;;;0.38;0.20;;;;;;;8.56;100.00;98997.16;5058881;28;20038;-73
2024/01/02 06:22:10;;;;;;;0.35;0.17;;;;;;;8.57;100.00;99016.84;5053115;28;20857;-73
2024/01/02 06:24:36;;;;;;;1.85;0.20;;;;;;;8.71;100.00;98984.94;5049594;28;20663;-73
2024/01/02 06:27:01;;;;;;;0.20;0.20;;;;;;;8.67;100.00;99013.94;5064163;28;20536;-73
2024/01/02 06:29:26;;;;;;;0.30;0.15;;;;;;;8.67;100.00;99012.16;5047561;28;20043;-73
2024/01/02 06:31:52;;;;;;;0.35;0.22;;;;;;;8.73;100.00;99026.91;5066416;28;20074;-72
2024/01/02 06:34:17;;;;;;;2.88;0.30;;;;;;;8.81;100.00;99028.53;5071421;28;20105;-72
2024/01/02 06:36:43;;;;;;;0.28;0.28;;;;;;;8.81;100.00;99049.22;5046926;28;20043;-73
2024/01/02 06:39:08;;;;;;;0.73;0.40;;;;;;;8.86;100.00;99041.72;5063117;28;20040;-73
2024/01/02 06:41:34;;;;;;;0.40;0.30;;;;;;;8.97;100.00;99053.34;5080238;28;20074;-73
2024/01/02 06:43:59;;;;;;;0.30;0.30;;;;;;;8.97;100.00;99040.41;5083123;28;20029;-72
2024/01/02 06:46:24;;;;;;;1.75;0.60;;;;;;;9.01;100.00;99048.59;5069363;28;20579;-73
2024/01/02 06:48:50;;;;;;;0.43;0.38;;;;;;;9.06;100.00;99041.88;5085703;28;20041;-72
2024/01/02 06:51:16;;;;;;;2.67;0.63;;;;;;;9.15;100.00;99030.41;5064454;28;20406;-73
2024/01/02 06:53:42;;;;;;;1.05;0.38;;;;;;;9.21;100.00;99023.66;5056536;28;20036;-73
2024/01/02 06:56:08;;;;;;;2.33;0.43;;;;;;;9.20;100.00;99021.28;5049382;28;20033;-73
2024/01/02 06:58:33;;;;;;;0.68;0.60;;;;;;;9.25;100.00;99034.41;5081335;28;20036;-72
2024/01/02 07:00:59;;;;;;;2.10;0.60;;;;;;;9.29;100.00;99035.66;5052403;28;20441;-73
2024/01/02 07:03:24;;;;;;;0.52;0.40;;;;;;;9.32;100.00;99041.25;5081009;28;20507;-73
2024/01/02 07:05:50;;;;;;;0.40;0.40;;;;;;;9.33;100.00;99039.44;5060922;28;20032;-73
2024/01/02 07:08:15;;;;;;;3.60;0.50;;;;;;;9.31;100.00;99036.25;5083104;28;20078;-73
2024/01/02 07:10:40;;;;;;;0.38;0.38;;;;;;;9.30;100.00;99037.22;5062459;28;20032;-72
2024/01/02 07:13:07;;;;;;;0.50;0.40;;;;;;;9.39;100.00;99033.50;5080144;28;20036;-73
2024/01/02 07:15:32;;;;;;;2.00;0.20;;;;;;;9.41;100.00;99035.91;5068670;28;20036;-72
2024/01/02 07:17:58;;;;;;;1.42;0.30;;;;;;;9.41;100.00;99046.25;5081895;28;20039;-72
2024/01/02 07:20:23;;;;;;;3.90;0.68;;;;;;;9.51;100.00;99046.69;5081799;28;20399;-72
2024/01/02 07:22:50;;;;;;;0.82;0.40;;;;;;;9.39;100.00;99053.41;5061523;28;20180;-72
2024/01/02 07:25:16;;;;;;;1.55;0.30;;;;;;;9.39;100.00;99043.84;5078705;28;20464;-72
2024/01/02 07:27:41;;;;;;;1.27;0.40;;;;;;;9.47;100.00;99041.09;5066303;28;20032;-73
2024/01/02 07:30:08;;;;;;;1.17;0.30;;;;;;;9.50;100.00;99053.66;5082053;28;20984;-72
2024/01/02 07:32:34;;;;;;;0.30;0.30;;;;;;;9.51;100.00;99065.63;5069126;28;20044;-73
2024/01/02 07:35:00;;;;;;;0.50;0.32;;;;;;;9.47;100.00;99079.91;5062046;28;20051;-73
2024/01/02 07:37:25;;;;;;;0.98;0.50;;;;;;;9.50;100.00;99069.19;5051977;28;20443;-74
2024/01/02 07:39:53;;;;;;;0.40;0.40;;;;;;;9.59;100.00;99072.44;5086560;28;20032;-73
2024/01/02 07:42:19;;;;;;;0.60;0.30;;;;;;;9.55;100.00;99082.38;5050104;28;20794;-73
2024/01/02 07:44:44;;;;;;;1.48;0.90;;;;;;;9.50;100.00;99078.75;5079188;28;20036;-72
2024/01/02 07:47:10;;;;;;;1.65;0.80;;;;;;;9.46;100.00;99085.28;5080844;28;20098;-72
2024/01/02 07:49:35;;;;;;;0.40;0.38;;;;;;;9.57;100.00;99089.94;5062272;28;20055;-72
2024/01/02 07:52:01;;;;;;;0.50;0.50;;;;;;;9.58;100.00;99088.16;5063996;28;20031;-72
2024/01/02 07:54:26;;;;;;;0.50;0.40;;;;;;;9.67;100.00;99099.94;5083426;28;20571;-73
2024/01/02 07:56:52;;;;;;;1.58;0.30;;;;;;;9.64;100.00;99105.50;5065224;28;20097;-72
2024/01/02 07:59:19;;;;;;;0.47;0.47;;;;;;;9.66;100.00;99119.03;5057580;28;20104;-73
2024/01/02 08:01:47;;;;;;;0.80;0.70;;;;;;;9.63;100.00;99128.00;5058801;28;20060;-73
2024/01/02 08:04:13;;;;;;;0.43;0.43;;;;;;;9.70;100.00;99115.88;5072199;28;20048;-73
2024/01/02 08:06:38;;;;;;;0.80;0.77;;;;;;;9.67;100.00;99115.47;5062119;28;20372;-75
2024/01/02 08:09:04;;;;;;;0.82;0.60;;;;;;;9.67;100.00;99105.91;5066924;28;20047;-74
2024/01/02 08:11:29;;;;;;;1.90;0.50;;;;;;;9.59;100.00;99118.19;5074242;28;20040;-73
2024/01/02 08:13:55;;;;;;;0.80;0.60;;;;;;;9.63;100.00;99125.41;5076647;28;20043;-73
2024/01/02 08:16:20;;;;;;;1.77;0.50;;;;;;;9.68;100.00;99119.63;5065184;28;20044;-73
2024/01/02 08:18:46;;;;;;;0.90;0.70;;;;;;;9.69;100.00;99134.97;5059767;28;20094;-73
2024/01/02 08:21:11;;;;;;;0.63;0.63;;;;;;;9.74;100.00;99130.03;5083081;28;20047;-74
2024/01/02 08:23:38;;;;;;;0.90;0.77;;;;;;;9.68;100.00;99140.34;5078210;28;20039;-74
2024/01/02 08:26:12;;;;;;;0.77;0.70;;;;;;;9.67;100.00;99149.13;5065191;28;20621;-73
2024/01/02 08:28:38;;;;;;;1.33;1.00;;;;;;;9.66;100.00;99150.09;5049518;28;20435;-72
2024/01/02 08:31:04;;;;;;;1.45;0.90;;;;;;;9.60;100.00;99150.84;5085452;28;20027;-74
2024/01/02 08:33:29;;;;;;;1.30;1.20;;;;;;;9.74;100.00;99148.16;5057090;28;20044;-73
2024/01/02 08:35:55;;;;;;;1.30;1.10;;;;;;;9.80;100.00;99148.41;5068138;28;20516;-73
2024/01/02 08:38:21;;;;;;;1.70;1.40;;;;;;;9.73;100.00;99145.75;5044886;28;20518;-72
2024/01/02 08:40:47;;;;;;;1.55;1.20;;;;;;;9.72;100.00;99149.34;5066225;28;20115;-73
2024/01/02 08:43:13;;;;;;;1.40;1.30;;;;;;;9.70;100.00;99148.72;5051601;28;20127;-72
2024/01/02 08:45:38;;;;;;;4.57;1.52;;;;;;;9.78;100.00;99158.94;5083684;28;20024;-73
2024/01/02 08:48:04;;;;;;;1.70;1.58;;;;;;;9.87;100.00;99168.16;5081144;28;20032;-73
2024/01/02 08:50:30;;;;;;;1.40;1.30;;;;;;;9.87;100.00;99156.97;5064908;28;20031;-73
2024/01/02 08:52:55;;;;;;;1.55;1.20;;;;;;;9.81;100.00;99163.72;5063713;28;20032;-73
2024/01/02 08:55:20;;;;;;;1.80;1.40;;;;;;;9.84;100.00;99160.75;5061012;28;20392;-74
2024/01/02 08:57:46;;;;;;;1.35;1.25;;;;;;;9.93;100.00;99167.38;5050441;28;20043;-73
2024/01/02 09:00:14;;;;;;;2.88;1.30;;;;;;;9.90;100.00;99170.34;5063504;28;20028;-73
2024/01/02 09:02:42;;;;;;;1.20;0.98;;;;;;;9.87;100.00;99156.97;5066479;28;20406;-73
2024/01/02 09:05:08;;;;;;;1.40;1.30;;;;;;;9.90;100.00;99159.97;5067406;28;20466;-73
2024/01/02 09:07:35;;;;;;;4.03;1.00;;;;;;;10.02;100.00;99159.44;5061014;28;20038;-73
2024/01/02 09:10:01;;;;;;;2.38;1.00;;;;;;;9.91;100.00;99142.69;5070500;28;20047;-73
2024/01/02 09:12:26;;;;;;;2.85;0.60;;;;;;;10.00;100.00;99143.31;5050708;28;20032;-74
2024/01/02 09:14:54;;;;;;;3.05;0.70;;;;;;;9.98;100.00;99148.66;5081757;28;20031;-73
2024/01/02 09:17:20;;;;;;;1.25;0.80;;;;;;;10.10;100.00;99151.53;5081339;28;20033;-73
2024/01/02 09:19:46;;;;;;;0.88;0.68;;;;;;;10.02;100.00;99154.25;5078023;28;20502;-73
2024/01/02 09:22:11;;;;;;;0.68;0.63;;;;;;;9.98;100.00;99151.25;5052434;28;20044;-73
2024/01/02 09:24:39;;;;;;;0.80;0.60;;;;;;;10.03;100.00;99154.06;5064935;28;20039;-75
2024/01/02 09:27:06;;;;;;;1.88;0.65;;;;;;;10.05;100.00;99144.31;5062580;28;20028;-75
2024/01/02 09:29:31;;;;;;;0.75;0.60;;;;;;;10.08;100.00;99156.09;5066596;28;20036;-72
2024/01/02 09:31:57;;;;;;;0.50;0.50;;;;;;;10.04;100.00;99144.50;5083332;28;20028;-74
2024/01/02 09:34:23;;;;;;;2.25;0.55;;;;;;;9.93;100.00;99151.84;5072859;28;20035;-74
2024/01/02 09:36:53;;;;;;;0.98;0.57;;;;;;;10.04;100.00;99141.91;5051897;28;20045;-74
2024/01/02 09:39:18;;;;;;;1.40;0.50;;;;;;;10.11;100.00;99147.94;5053170;28;20032;-73
2024/01/02 09:42:09;;;;;;;0.65;0.65;;;;;;;10.12;100.00;99145.16;5067319;28;20039;-74
2024/01/02 09:44:50;;;;;;;4.47;0.50;;;;;;;10.10;100.00;99136.00;5057211;28;20055;-74
2024/01/02 09:47:28;;;;;;;2.22;0.50;;;;;;;10.00;100.00;99140.72;5079166;28;20472;-74
2024/01/02 09:49:58;;;;;;;0.32;0.30;;;;;;;10.05;100.00;99135.75;5066528;28;20040;-74
2024/01/02 09:52:53;;;;;;;1.48;0.40;;;;;;;10.18;100.00;99130.63;5079624;28;20043;-73
2024/01/02 09:55:48;;;;;;;0.70;0.40;;;;;;;10.10;100.00;99125.63;5078839;28;20036;-73
2024/01/02 09:58:37;;;;;;;1.27;0.40;;;;;;;10.01;100.00;99119.81;5065652;28;20040;-73
2024/01/02 10:01:09;;;;;;;0.57;0.50;;;;;;;10.08;100.00;99112.88;5066458;28;20495;-73
2024/01/02 10:04:11;;;;;;;1.70;0.60;;;;;;;10.10;100.00;99120.44;5066842;28;20040;-73
2024/01/02 10:07:04;;;;;;;0.50;0.40;;;;;;;10.05;100.00;99115.03;5086282;28;20025;-73
2024/01/02 10:10:12;;;;;;;2.28;0.40;;;;;;;10.12;100.00;99113.28;5047399;28;20510;-73
2024/01/02 10:13:07;;;;;;;0.38;0.20;;;;;;;10.20;100.00;99104.53;5084245;28;20483;-74
2024/01/02 10:16:04;;;;;;;1.23;0.28;;;;;;;10.21;100.00;99108.72;5047322;28;20040;-73
2024/01/02 10:18:49;;;;;;;2.03;0.30;;;;;;;10.22;100.00;99098.16;5081553;28;20055;-73
2024/01/02 10:21:29;;;;;;;0.80;0.35;;;;;;;10.28;100.00;99096.59;5089370;28;20028;-74
2024/01/02 10:24:11;;;;;;;0.77;0.30;;;;;;;10.29;100.00;99100.78;5048528;28;20032;-73
2024/01/02 10:26:53;;;;;;;0.73;0.30;;;;;;;10.24;100.00;99095.38;5068725;28;20032;-72
2024/01/02 10:29:31;;;;;;;0.52;0.20;;;;;;;10.36;100.00;99093.03;5066906;28;20105;-73
2024/01/02 10:32:06;;;;;;;0.30;0.30;;;;;;;10.30;100.00;99089.41;5051558;28;20123;-73
2024/01/02 10:34:37;;;;;;;0.93;0.20;;;;;;;10.27;100.00;99085.44;5062204;28;20043;-73
2024/01/02 10:37:07;;;;;;;0.47;0.20;;;;;;;10.33;100.00;99091.66;5052936;28;20035;-73
2024/01/02 10:39:41;;;;;;;1.38;0.15;;;;;;;10.26;100.00;99085.63;5064442;28;20059;-74
2024/01/02 10:42:32;;;;;;;0.25;0.20;;;;;;;10.35;100.00;99086.28;5060136;28;20131;-73
2024/01/02 10:45:25;;;;;;;0.28;0.20;;;;;;;10.22;100.00;99081.84;5064728;28;20043;-73
2024/01/02 10:48:06;;;;;;;;;;;;;;;10.22;100.00;99087.00;5078857;28;21977;-73
2024/01/02 10:50:46;;;;;;;0.63;0.30;;;;;;;10.22;100.00;99080.03;5059891;28;19931;-72
2024/01/02 10:53:57;;;;;;;0.52;0.40;;;;;;;10.31;100.00;99073.72;5059505;28;20043;-72
2024/01/02 10:56:52;;;;;;;0.50;0.47;;;;;;;10.35;100.00;99063.75;5070340;28;20036;-73
2024/01/02 10:59:35;;;;;;;0.40;0.30;;;;;;;10.38;100.00;99059.97;5047801;28;20115;-72
2024/01/02 11:02:16;;;;;;;0.28;0.20;;;;;;;10.27;100.00;99071.69;5081291;28;20365;-73
2024/01/02 11:04:49;;;;;;;1.10;0.98;;;;;;;10.37;100.00;99063.56;5048995;28;20491;-73
2024/01/02 11:07:20;;;;;;;1.17;0.70;;;;;;;10.31;100.00;99062.56;5084526;28;20024;-74
2024/01/02 11:10:04;;;;;;;0.32;0.30;;;;;;;10.26;100.00;99052.75;5069546;28;20093;-73
2024/01/02 11:12:48;;;;;;;0.22;0.22;;;;;;;10.14;100.00;99049.94;5077924;28;20047;-73
2024/01/02 11:15:15;;;;;;;0.80;0.50;;;;;;;10.27;100.00;99049.16;5061062;28;20028;-73
2024/01/02 11:17:42;;;;;;;0.30;0.20;;;;;;;10.09;100.00;99038.56;5086096;28;20043;-74
2024/01/02 11:20:14;;;;;;;0.60;0.30;;;;;;;10.02;100.00;99048.91;5082976;28;20038;-74
2024/01/02 11:22:59;;;;;;;0.57;0.40;;;;;;;9.98;100.00;99039.91;5048934;28;20402;-74
2024/01/02 11:25:28;;;;;;;0.75;0.35;;;;;;;9.94;100.00;99044.72;5082830;28;20438;-74
2024/01/02 11:27:56;;;;;;;1.15;0.40;;;;;;;9.90;100.00;99048.66;5065374;28;20039;-74
2024/01/02 11:30:24;;;;;;;0.52;0.28;;;;;;;9.88;100.00;99036.91;5053314;28;20288;-74
2024/01/02 11:33:12;;;;;;;0.40;0.32;;;;;;;9.85;100.00;99035.50;5063341;28;20046;-74
2024/01/02 11:35:47;;;;;;;3.20;0.30;;;;;;;9.83;100.00;99032.31;5083530;28;20052;-73